Lihue, HI

12:36 AM HST on May 23, 2015 (GMT -1000)
Wheeler Army Air Field | | Change Station
CLOSE
Current Station
Airport
Location: Wheeler AAF,
Elevation: 837 ft
Nearby Weather Stations

Elev 837 ft 21.48 °N, 158.04 °W | Updated 38 minutes ago

Scattered Clouds
Scattered Clouds
69 °F
Feels Like 69 °F
N
7
Wind Variable Wind from NNW

Today
High -- | Low -- °F
--% Chance of Precip.
Yesterday
High -- | Low -- °F
Precip. -- in
5:55 AM 7:13 PM
Waxing Crescent, 29% visible
Pressure 30.01 in
Visibility 10.0 miles
Clouds Scattered Clouds 3800 ft
Scattered Clouds 8000 ft
Dew Point 63 °F
Humidity 81%
Rainfall 0.01 in
Snow Depth Not available.
UV 0 out of 12
Pollen Not available.
Air Quality Not available.
Flu Activity Local Activity
METAR PHHI 230958Z AUTO 33006KT 10SM SCT038 SCT080 20/17 A3004 RMK AO2 SLP162 T02040171 402740178 $

More Conditions Fewer Conditions

Pressure 30.01 in
Visibility 10.0 miles
Clouds Scattered Clouds 3800 ft
Scattered Clouds 8000 ft
Dew Point 63 °F
Humidity 81%
Rainfall 0.01 in
Snow Depth Not available.
UV 0 out of 12
Pollen Not available.
Air Quality Not available.
Flu Activity Local Activity
METAR PHHI 230958Z AUTO 33006KT 10SM SCT038 SCT080 20/17 A3004 RMK AO2 SLP162 T02040171 402740178 $

More Conditions Fewer Conditions

10-Day Weather Forecast

Almanac

Astronomy

May. 23, 2015 Rise Set
Actual Time
Civil Twilight
Nautical Twilight
Astronomical Twilight
Moon
Length of Visible Light
Length of Day
Tomorrow will be .
, % of the Moon is Illuminated

Today's Extremes

State Highs State Lows

Community

WunderPhotos

Upload Photos

1,823,407 photos uploaded!

WunderBlogs® & News

Nearby

Air Quality

  Air Quality AQ Index Pollutant
Not available.

Snow Depth

Station Depth Elevation

Earthquake Activity

City Distance Mag. Time & Date
Minimum magnitude displayed is 2.5.

Coastal Water Temperatures

Place Temperature

Stations

Nearby Weather Stations

Station Location Temp. Windchill Dew Point Humidity Wind Precip. Elev Updated Type